createdAt,value
2023-11-22T00:00:25.464Z,31.64
2023-11-22T00:01:27.872Z,31.52
2023-11-22T00:02:30.714Z,31.53
2023-11-22T00:03:32.925Z,31.54
2023-11-22T00:04:35.223Z,31.80
2023-11-22T00:05:37.099Z,31.57
2023-11-22T00:06:39.553Z,31.50
2023-11-22T00:07:42.153Z,30.70
2023-11-22T00:08:44.186Z,30.59
2023-11-22T00:09:47.783Z,30.47
2023-11-22T00:10:49.666Z,30.09
2023-11-22T00:11:51.861Z,30.27
2023-11-22T00:12:53.795Z,30.04
2023-11-22T00:13:58.439Z,30.04
2023-11-22T00:15:00.887Z,29.88
2023-11-22T00:16:03.144Z,29.84
2023-11-22T00:17:05.484Z,29.95
2023-11-22T00:18:07.665Z,30.01
2023-11-22T00:19:09.898Z,29.98
2023-11-22T00:20:12.782Z,29.93
2023-11-22T00:21:14.988Z,30.36
2023-11-22T00:22:16.849Z,30.12
2023-11-22T00:23:18.955Z,29.95
2023-11-22T00:24:21.018Z,30.05
2023-11-22T00:25:23.271Z,30.43
2023-11-22T00:26:26.172Z,30.48
2023-11-22T00:27:35.199Z,30.07
2023-11-22T00:28:37.493Z,30.14
2023-11-22T00:29:39.415Z,30.19
2023-11-22T00:30:41.574Z,30.34
2023-11-22T00:31:46.209Z,30.86
2023-11-22T00:32:48.343Z,30.34
2023-11-22T00:33:50.382Z,30.56
2023-11-22T00:34:53.024Z,30.92
2023-11-22T00:35:58.098Z,30.50
2023-11-22T00:37:00.426Z,31.05
2023-11-22T00:38:02.788Z,30.82
2023-11-22T00:39:05.358Z,31.13
2023-11-22T00:40:14.266Z,30.64
2023-11-22T00:41:16.853Z,31.01
2023-11-22T00:42:21.507Z,30.66
2023-11-22T00:43:23.704Z,31.05
2023-11-22T00:44:25.813Z,30.86
2023-11-22T00:45:28.056Z,30.99
2023-11-22T00:46:30.142Z,31.56
2023-11-22T00:47:35.749Z,31.46
2023-11-22T00:48:38.213Z,31.37
2023-11-22T00:49:40.149Z,31.11
2023-11-22T00:50:42.057Z,31.61
2023-11-22T00:51:44.020Z,31.17
2023-11-22T00:52:46.374Z,31.29
2023-11-22T00:53:48.372Z,31.09
2023-11-22T00:54:51.047Z,31.71
2023-11-22T00:55:54.385Z,31.52
2023-11-22T00:56:56.263Z,31.63
2023-11-22T00:58:04.797Z,31.82
2023-11-22T00:59:07.433Z,31.89
2023-11-22T01:00:11.240Z,31.81
2023-11-22T01:01:13.374Z,31.50
2023-11-22T01:02:15.553Z,31.46
2023-11-22T01:03:17.659Z,31.60
2023-11-22T01:04:20.148Z,31.62
2023-11-22T01:05:23.743Z,31.83
2023-11-22T01:06:26.172Z,31.55
2023-11-22T01:07:28.136Z,31.97
2023-11-22T01:08:30.259Z,31.67
2023-11-22T01:09:33.295Z,32.15
2023-11-22T01:10:35.160Z,31.81
2023-11-22T01:11:37.005Z,31.75
2023-11-22T01:12:40.450Z,31.74
2023-11-22T01:13:44.125Z,32.08
2023-11-22T01:14:46.374Z,31.81
2023-11-22T01:15:48.367Z,32.23
2023-11-22T01:16:50.350Z,32.09
2023-11-22T01:17:52.360Z,31.71
2023-11-22T01:18:54.282Z,32.25
2023-11-22T01:19:56.460Z,32.24
2023-11-22T01:20:58.507Z,32.37
2023-11-22T01:22:00.702Z,32.27
2023-11-22T01:23:03.005Z,32.09
2023-11-22T01:24:05.593Z,32.30
2023-11-22T01:25:08.012Z,32.02
2023-11-22T01:26:11.175Z,32.49
2023-11-22T01:27:13.259Z,32.33
2023-11-22T01:28:15.837Z,32.18
2023-11-22T01:29:17.954Z,32.61
2023-11-22T01:30:19.869Z,32.32
2023-11-22T01:31:22.736Z,32.62
2023-11-22T01:32:25.296Z,32.61
2023-11-22T01:33:28.403Z,32.17
2023-11-22T01:34:30.908Z,32.23
2023-11-22T01:35:33.070Z,32.45
2023-11-22T01:36:35.004Z,32.58
2023-11-22T01:37:37.225Z,32.27
2023-11-22T01:38:41.088Z,32.50
2023-11-22T01:39:43.561Z,32.52
2023-11-22T01:40:47.871Z,32.54
2023-11-22T01:41:51.133Z,32.47
2023-11-22T01:42:53.056Z,32.59
2023-11-22T01:43:55.751Z,32.62
2023-11-22T01:44:57.910Z,32.90
2023-11-22T01:46:00.581Z,32.72
2023-11-22T01:47:06.261Z,32.78
2023-11-22T01:48:08.843Z,32.62
2023-11-22T01:49:12.442Z,32.77
2023-11-22T01:50:16.428Z,32.91
2023-11-22T01:51:18.622Z,33.00
2023-11-22T01:52:21.313Z,32.90
2023-11-22T01:53:23.981Z,32.78
2023-11-22T01:54:26.741Z,32.70
2023-11-22T01:55:29.562Z,33.00
2023-11-22T01:56:32.811Z,32.98
2023-11-22T01:57:37.978Z,32.79
2023-11-22T01:58:40.576Z,33.05
2023-11-22T01:59:47.052Z,32.88
2023-11-22T02:00:53.846Z,32.72
2023-11-22T02:01:56.384Z,32.78
2023-11-22T02:02:58.583Z,32.82
2023-11-22T02:04:00.667Z,32.70
2023-11-22T02:05:03.023Z,32.69
2023-11-22T02:06:06.463Z,32.98
2023-11-22T02:07:09.002Z,32.90
2023-11-22T02:08:11.792Z,32.94
2023-11-22T02:09:16.730Z,32.69
2023-11-22T02:10:18.802Z,33.10
2023-11-22T02:11:25.716Z,32.68
2023-11-22T02:12:27.974Z,33.09
2023-11-22T02:13:31.499Z,32.90
2023-11-22T02:14:34.263Z,32.92
2023-11-22T02:15:36.406Z,33.14
2023-11-22T02:16:40.977Z,33.18
2023-11-22T02:17:43.022Z,32.98
2023-11-22T02:18:47.213Z,33.13
2023-11-22T02:19:49.465Z,33.26
2023-11-22T02:20:52.316Z,33.07
2023-11-22T02:21:54.319Z,32.83
2023-11-22T02:22:57.329Z,33.21
2023-11-22T02:23:59.578Z,32.87
2023-11-22T02:25:01.617Z,33.05
2023-11-22T02:26:03.941Z,33.16
2023-11-22T02:27:07.354Z,33.13
2023-11-22T02:28:10.087Z,33.28
2023-11-22T02:29:12.176Z,33.19
2023-11-22T02:30:14.427Z,33.23
2023-11-22T02:31:16.295Z,33.15
2023-11-22T02:32:19.972Z,33.21
2023-11-22T02:33:22.313Z,33.35
2023-11-22T02:34:24.204Z,33.27
2023-11-22T02:35:30.450Z,33.27
2023-11-22T02:36:32.476Z,33.14
2023-11-22T02:37:37.263Z,33.36
2023-11-22T02:38:39.700Z,33.24
2023-11-22T02:40:05.872Z,33.21
2023-11-22T02:41:10.308Z,33.31
2023-11-22T02:42:12.583Z,33.33
2023-11-22T02:43:14.726Z,33.15
2023-11-22T02:44:18.561Z,33.43
2023-11-22T02:45:29.177Z,33.21
2023-11-22T02:46:32.680Z,33.24
2023-11-22T02:47:35.565Z,33.20
2023-11-22T02:48:38.869Z,33.40
2023-11-22T02:49:41.414Z,33.29
2023-11-22T02:50:45.046Z,33.35
2023-11-22T02:51:47.572Z,33.26
2023-11-22T02:52:49.706Z,33.62
2023-11-22T02:53:52.609Z,33.52
2023-11-22T02:54:54.621Z,33.62
2023-11-22T02:56:00.317Z,33.41
2023-11-22T02:57:02.305Z,33.41
2023-11-22T02:58:04.221Z,33.34
2023-11-22T02:59:07.431Z,33.49
2023-11-22T03:00:14.469Z,33.49
2023-11-22T03:01:16.491Z,33.37
2023-11-22T03:02:18.643Z,33.42
2023-11-22T03:03:20.887Z,33.41
2023-11-22T03:04:22.872Z,33.36
2023-11-22T03:05:25.717Z,33.43
2023-11-22T03:06:29.185Z,33.34
2023-11-22T03:07:31.790Z,33.47
2023-11-22T03:08:34.680Z,33.54
2023-11-22T03:09:37.695Z,33.47
2023-11-22T03:10:39.993Z,33.42
2023-11-22T03:11:42.220Z,33.49
2023-11-22T03:12:44.617Z,33.56
2023-11-22T03:13:46.786Z,33.41
2023-11-22T03:14:48.768Z,33.48
2023-11-22T03:15:50.766Z,33.48
2023-11-22T03:16:53.357Z,33.60
2023-11-22T03:17:55.927Z,33.53
2023-11-22T03:18:59.485Z,33.48
2023-11-22T03:20:02.769Z,33.46
2023-11-22T03:21:06.904Z,33.59
2023-11-22T03:22:09.200Z,33.58
2023-11-22T03:23:13.935Z,33.81
2023-11-22T03:24:16.812Z,33.42
2023-11-22T03:25:19.166Z,33.38
2023-11-22T03:26:21.278Z,33.88
2023-11-22T03:27:24.339Z,33.62
2023-11-22T03:28:26.213Z,33.67
2023-11-22T03:29:28.665Z,33.58
2023-11-22T03:30:30.569Z,33.68
2023-11-22T03:31:32.700Z,33.27
2023-11-22T03:32:38.392Z,33.60
2023-11-22T03:33:41.267Z,33.64
2023-11-22T03:34:43.275Z,33.61
2023-11-22T03:35:45.396Z,33.60
2023-11-22T03:36:47.664Z,33.53
2023-11-22T03:37:49.758Z,33.58
2023-11-22T03:38:52.050Z,33.71
2023-11-22T03:39:54.344Z,33.56
2023-11-22T03:40:56.336Z,33.52
2023-11-22T03:41:58.480Z,33.72
2023-11-22T03:43:00.630Z,34.14
2023-11-22T03:44:02.626Z,33.65
2023-11-22T03:45:07.039Z,33.80
2023-11-22T03:46:09.250Z,33.76
2023-11-22T03:47:14.774Z,33.73
2023-11-22T03:48:17.029Z,33.43
2023-11-22T03:49:19.059Z,33.88
2023-11-22T03:50:21.394Z,33.85
2023-11-22T03:51:23.378Z,33.56
2023-11-22T03:52:25.333Z,33.60
2023-11-22T03:53:27.342Z,33.78
2023-11-22T03:54:29.270Z,33.74
2023-11-22T03:55:31.784Z,33.69
2023-11-22T03:56:34.762Z,33.77
2023-11-22T03:57:36.719Z,33.82
2023-11-22T03:58:38.958Z,33.66
2023-11-22T03:59:42.381Z,33.80
2023-11-22T04:00:44.419Z,33.74
2023-11-22T04:01:46.713Z,33.87
2023-11-22T04:02:48.978Z,34.01
2023-11-22T04:03:51.604Z,33.69
2023-11-22T04:04:53.625Z,33.94
2023-11-22T04:05:55.581Z,33.73
2023-11-22T04:06:57.472Z,33.55
2023-11-22T04:07:59.805Z,33.79
2023-11-22T04:09:02.865Z,33.66
2023-11-22T04:10:07.187Z,33.86
2023-11-22T04:11:09.241Z,33.92
2023-11-22T04:12:11.130Z,33.70
2023-11-22T04:13:13.522Z,33.75
2023-11-22T04:14:15.987Z,33.79
2023-11-22T04:15:18.275Z,33.79
2023-11-22T04:16:20.960Z,33.67
2023-11-22T04:17:23.072Z,33.69
2023-11-22T04:18:25.847Z,33.97
2023-11-22T04:19:29.672Z,33.72
2023-11-22T04:20:32.082Z,33.80
2023-11-22T04:21:34.316Z,33.88
2023-11-22T04:22:39.560Z,34.40
2023-11-22T04:23:41.404Z,33.79
2023-11-22T04:24:43.919Z,33.94
2023-11-22T04:25:45.800Z,33.92
2023-11-22T04:26:49.185Z,33.96
2023-11-22T04:27:51.715Z,33.84
2023-11-22T04:28:53.739Z,33.75
2023-11-22T04:29:56.028Z,33.77
2023-11-22T04:30:59.167Z,34.02
2023-11-22T04:32:01.166Z,33.89
2023-11-22T04:33:03.367Z,33.86
2023-11-22T04:34:05.553Z,34.01
2023-11-22T04:35:11.296Z,33.92
2023-11-22T04:36:13.655Z,34.00
2023-11-22T04:37:15.814Z,34.07
2023-11-22T04:38:19.018Z,33.91
2023-11-22T04:39:21.457Z,33.99
2023-11-22T04:40:23.708Z,33.84
2023-11-22T04:41:26.993Z,33.90
2023-11-22T04:42:29.269Z,33.91
2023-11-22T04:43:31.221Z,33.89
2023-11-22T04:44:33.475Z,33.91
2023-11-22T04:45:35.793Z,33.90
2023-11-22T04:46:38.015Z,33.93
2023-11-22T04:47:41.263Z,34.02
2023-11-22T04:48:46.169Z,33.82
2023-11-22T04:49:48.410Z,33.98
2023-11-22T04:50:50.430Z,33.93
2023-11-22T04:51:52.385Z,33.94
2023-11-22T04:52:54.384Z,34.12
2023-11-22T04:53:56.367Z,34.00
2023-11-22T04:54:58.311Z,34.13
2023-11-22T04:56:00.974Z,34.15
2023-11-22T04:57:03.403Z,34.06
2023-11-22T04:58:05.436Z,34.33
2023-11-22T04:59:07.742Z,34.14
2023-11-22T05:00:11.229Z,33.95
2023-11-22T05:01:13.857Z,33.99
2023-11-22T05:02:17.298Z,33.72
2023-11-22T05:03:19.682Z,34.19
2023-11-22T05:04:21.636Z,34.29
2023-11-22T05:05:23.577Z,34.25
2023-11-22T05:06:28.623Z,33.92
2023-11-22T05:07:30.835Z,33.83
2023-11-22T05:08:33.041Z,34.19
2023-11-22T05:09:35.404Z,34.23
2023-11-22T05:10:37.715Z,34.23
2023-11-22T05:11:39.666Z,34.42
2023-11-22T05:12:41.780Z,34.29
2023-11-22T05:13:46.995Z,34.25
2023-11-22T05:14:49.242Z,34.58
2023-11-22T05:15:51.950Z,34.51
2023-11-22T05:16:54.027Z,34.55
2023-11-22T05:17:56.037Z,34.81
2023-11-22T05:18:58.208Z,34.88
2023-11-22T05:20:00.225Z,34.85
2023-11-22T05:21:04.448Z,34.77
2023-11-22T05:22:06.779Z,34.60
2023-11-22T05:23:08.846Z,34.57
2023-11-22T05:24:11.166Z,34.79
2023-11-22T05:25:13.338Z,34.68
2023-11-22T05:26:15.380Z,34.76
2023-11-22T05:27:18.096Z,34.89
2023-11-22T05:28:20.699Z,34.91
2023-11-22T05:29:22.941Z,35.03
2023-11-22T05:30:24.888Z,34.96
2023-11-22T05:31:27.039Z,34.82
2023-11-22T05:32:32.845Z,34.90
2023-11-22T05:33:35.143Z,35.05
2023-11-22T05:34:37.331Z,34.81
2023-11-22T05:35:39.645Z,34.83
2023-11-22T05:36:41.726Z,35.20
2023-11-22T05:37:44.013Z,34.98
2023-11-22T05:38:46.530Z,35.15
2023-11-22T05:39:48.469Z,35.02
2023-11-22T05:40:50.696Z,35.03
2023-11-22T05:41:54.233Z,35.06
2023-11-22T05:42:56.172Z,35.06
2023-11-22T05:43:58.059Z,34.81
2023-11-22T05:44:59.970Z,34.93
2023-11-22T05:46:01.905Z,35.05
2023-11-22T05:47:04.068Z,34.90
2023-11-22T05:48:06.335Z,34.98
2023-11-22T05:49:09.760Z,34.90
2023-11-22T05:50:12.061Z,35.03
2023-11-22T05:51:14.155Z,34.76
2023-11-22T05:52:16.329Z,34.81
2023-11-22T05:53:20.563Z,34.93
2023-11-22T05:54:23.104Z,34.94
2023-11-22T05:55:25.381Z,34.88
2023-11-22T05:56:27.412Z,35.04
2023-11-22T05:57:29.485Z,35.13
2023-11-22T05:58:31.719Z,34.94
2023-11-22T05:59:33.696Z,35.08
2023-11-22T06:00:35.584Z,34.99
2023-11-22T06:01:37.906Z,35.12
2023-11-22T06:02:40.972Z,35.13
2023-11-22T06:03:44.148Z,35.08
2023-11-22T06:04:46.499Z,34.87
2023-11-22T06:05:48.560Z,34.97
2023-11-22T06:06:50.535Z,34.75
2023-11-22T06:07:52.896Z,35.05
2023-11-22T06:08:55.838Z,35.01
2023-11-22T06:09:58.653Z,34.88
2023-11-22T06:11:01.282Z,34.82
2023-11-22T06:12:03.316Z,35.43
2023-11-22T06:13:05.207Z,35.01
2023-11-22T06:14:07.283Z,35.00
2023-11-22T06:15:09.977Z,35.08
2023-11-22T06:16:12.029Z,34.89
2023-11-22T06:17:15.338Z,35.22
2023-11-22T06:18:18.022Z,35.14
2023-11-22T06:19:20.001Z,35.27
2023-11-22T06:20:22.989Z,35.09
2023-11-22T06:21:28.203Z,35.12
2023-11-22T06:22:30.195Z,34.91
2023-11-22T06:23:32.489Z,34.97
2023-11-22T06:24:37.476Z,35.09
2023-11-22T06:25:43.074Z,35.08
2023-11-22T06:26:47.637Z,34.90
2023-11-22T06:27:49.657Z,35.30
2023-11-22T06:28:51.597Z,34.97
2023-11-22T06:29:53.537Z,35.24
2023-11-22T06:30:55.688Z,35.07
2023-11-22T06:31:57.662Z,35.07
2023-11-22T06:32:59.983Z,35.16
2023-11-22T06:34:02.954Z,35.23
2023-11-22T06:35:06.620Z,34.90
2023-11-22T06:36:11.406Z,35.21
2023-11-22T06:37:13.958Z,34.98
2023-11-22T06:38:15.885Z,35.16
2023-11-22T06:39:19.059Z,35.28
2023-11-22T06:40:23.969Z,34.99
2023-11-22T06:41:25.977Z,35.13
2023-11-22T06:42:28.253Z,35.17
2023-11-22T06:43:30.119Z,34.99
2023-11-22T06:44:32.349Z,35.16
2023-11-22T06:45:34.771Z,35.05
2023-11-22T06:46:37.034Z,35.44
2023-11-22T06:47:39.099Z,35.21
2023-11-22T06:48:41.821Z,35.05
2023-11-22T06:49:45.176Z,35.30
2023-11-22T06:50:47.379Z,35.22
2023-11-22T06:51:49.414Z,35.08
2023-11-22T06:52:53.909Z,35.26
2023-11-22T06:53:58.341Z,34.99
2023-11-22T06:55:01.159Z,35.15
2023-11-22T06:56:05.106Z,35.00
2023-11-22T06:57:07.441Z,35.20
2023-11-22T06:58:09.979Z,34.90
2023-11-22T06:59:12.202Z,35.04
2023-11-22T07:00:14.676Z,35.06
2023-11-22T07:01:17.887Z,35.03
2023-11-22T07:02:22.033Z,35.34
2023-11-22T07:03:24.862Z,35.31
2023-11-22T07:04:27.045Z,34.94
2023-11-22T07:05:31.565Z,35.33
2023-11-22T07:06:33.659Z,34.82
2023-11-22T07:07:37.038Z,35.18
2023-11-22T07:08:39.341Z,35.28
2023-11-22T07:09:45.681Z,35.22
2023-11-22T07:10:47.611Z,35.35
2023-11-22T07:11:51.279Z,35.22
2023-11-22T07:12:53.568Z,35.17
2023-11-22T07:13:55.488Z,35.14
2023-11-22T07:14:57.474Z,35.22
2023-11-22T07:16:01.271Z,35.15
2023-11-22T07:17:06.688Z,35.18
2023-11-22T07:18:11.166Z,35.32
2023-11-22T07:19:14.038Z,35.19
2023-11-22T07:20:18.389Z,35.35
2023-11-22T07:21:22.006Z,35.22
2023-11-22T07:22:25.320Z,35.42
2023-11-22T07:23:30.084Z,34.95
2023-11-22T07:24:36.017Z,35.11
2023-11-22T07:25:39.354Z,35.07
2023-11-22T07:26:41.362Z,35.29
2023-11-22T07:27:43.237Z,35.34
2023-11-22T07:28:45.910Z,35.20
2023-11-22T07:29:48.928Z,35.45
2023-11-22T07:30:51.228Z,35.25
2023-11-22T07:31:53.396Z,35.09
2023-11-22T07:32:56.365Z,35.22
2023-11-22T07:33:58.341Z,35.29
2023-11-22T07:35:04.725Z,35.34
2023-11-22T07:36:09.224Z,35.17
2023-11-22T07:37:11.246Z,35.15
2023-11-22T07:38:13.793Z,35.50
2023-11-22T07:39:15.973Z,35.19
2023-11-22T07:40:20.336Z,34.65
2023-11-22T07:41:22.884Z,35.04
2023-11-22T07:42:24.805Z,35.18
2023-11-22T07:43:27.007Z,35.04
2023-11-22T07:44:29.295Z,35.19
2023-11-22T07:45:32.767Z,35.22
2023-11-22T07:46:34.724Z,35.31
2023-11-22T07:47:36.884Z,35.41
2023-11-22T07:48:39.527Z,35.01
2023-11-22T07:49:43.577Z,35.20
2023-11-22T07:50:48.043Z,35.27
2023-11-22T07:51:53.392Z,35.26
2023-11-22T07:52:56.137Z,35.16
2023-11-22T07:53:58.120Z,35.34
2023-11-22T07:55:00.791Z,35.37
2023-11-22T07:56:05.942Z,35.06
2023-11-22T07:57:11.678Z,35.10
2023-11-22T07:58:13.694Z,35.01
2023-11-22T07:59:15.893Z,35.28
2023-11-22T08:00:20.833Z,35.34
2023-11-22T08:01:22.994Z,35.08
2023-11-22T08:02:25.333Z,35.23
2023-11-22T08:03:28.119Z,35.39
2023-11-22T08:04:33.608Z,35.30
2023-11-22T08:05:37.886Z,34.96
2023-11-22T08:06:40.174Z,35.27
2023-11-22T08:07:47.169Z,35.27
2023-11-22T08:08:50.019Z,35.07
2023-11-22T08:09:52.146Z,35.06
2023-11-22T08:10:54.740Z,35.14
2023-11-22T08:11:57.108Z,35.11
2023-11-22T08:12:59.301Z,35.43
2023-11-22T08:14:01.397Z,35.21
2023-11-22T08:15:04.799Z,35.21
2023-11-22T08:16:07.771Z,35.14
2023-11-22T08:17:09.990Z,35.18
2023-11-22T08:18:12.054Z,35.28
2023-11-22T08:19:15.560Z,35.32
2023-11-22T08:20:19.750Z,35.14
2023-11-22T08:21:22.228Z,35.10
2023-11-22T08:22:24.158Z,35.26
2023-11-22T08:23:28.203Z,35.15
2023-11-22T08:24:30.139Z,35.17
2023-11-22T08:25:32.637Z,35.07
2023-11-22T08:26:34.836Z,35.01
2023-11-22T08:27:36.834Z,34.98
2023-11-22T08:28:39.174Z,35.23
2023-11-22T08:29:41.575Z,35.18
2023-11-22T08:30:44.216Z,35.03
2023-11-22T08:31:46.382Z,35.02
2023-11-22T08:32:52.545Z,34.96
2023-11-22T08:33:54.589Z,34.90
2023-11-22T08:34:57.761Z,34.86
2023-11-22T08:36:03.676Z,34.93
2023-11-22T08:37:05.804Z,35.11
2023-11-22T08:38:10.836Z,35.05
2023-11-22T08:39:13.110Z,34.88
2023-11-22T08:40:15.843Z,35.04
2023-11-22T08:41:18.284Z,35.08
2023-11-22T08:42:21.759Z,35.12
2023-11-22T08:43:27.109Z,35.08
2023-11-22T08:44:29.327Z,34.99
2023-11-22T08:45:32.384Z,34.81
2023-11-22T08:46:34.926Z,34.93
2023-11-22T08:47:37.769Z,34.89
2023-11-22T08:48:41.894Z,34.71
2023-11-22T08:49:45.149Z,34.84
2023-11-22T08:50:49.438Z,34.73
2023-11-22T08:51:51.388Z,34.86
2023-11-22T08:52:55.869Z,34.93
2023-11-22T08:53:58.030Z,34.75
2023-11-22T08:55:01.544Z,34.75
2023-11-22T08:56:06.780Z,34.70
2023-11-22T08:57:08.718Z,34.85
2023-11-22T08:58:12.755Z,34.95
2023-11-22T08:59:18.089Z,34.90
2023-11-22T09:00:29.494Z,35.02
2023-11-22T09:01:31.530Z,34.84
2023-11-22T09:02:34.544Z,34.71
2023-11-22T09:03:36.944Z,34.93
2023-11-22T09:04:39.765Z,34.70
2023-11-22T09:05:42.267Z,34.74
2023-11-22T09:06:44.525Z,34.94
2023-11-22T09:07:47.955Z,34.84
2023-11-22T09:08:50.633Z,34.86
2023-11-22T09:09:52.752Z,34.62
2023-11-22T09:10:55.796Z,34.67
2023-11-22T09:12:00.861Z,34.82
2023-11-22T09:13:03.088Z,34.92
2023-11-22T09:14:06.582Z,34.60
2023-11-22T09:15:22.864Z,34.71
2023-11-22T09:16:26.720Z,35.04
2023-11-22T09:17:29.201Z,34.74
2023-11-22T09:18:31.142Z,34.73
2023-11-22T09:19:33.628Z,34.88
2023-11-22T09:20:35.579Z,34.76
2023-11-22T09:21:37.960Z,34.37
2023-11-22T09:22:51.232Z,34.69
2023-11-22T09:23:53.437Z,34.38
2023-11-22T09:24:55.360Z,34.32
2023-11-22T09:25:57.337Z,34.51
2023-11-22T09:26:59.575Z,34.31
2023-11-22T09:28:01.780Z,34.43
2023-11-22T09:29:04.973Z,34.17
2023-11-22T09:30:12.571Z,34.23
2023-11-22T09:31:19.408Z,34.28
2023-11-22T09:32:21.588Z,34.35
2023-11-22T09:33:24.835Z,34.33
2023-11-22T09:34:27.948Z,34.14
2023-11-22T09:35:36.529Z,34.04
2023-11-22T09:36:46.554Z,34.26
2023-11-22T09:37:50.915Z,34.21
2023-11-22T09:38:53.403Z,33.94
2023-11-22T09:39:55.852Z,34.23
2023-11-22T09:40:58.326Z,34.29
2023-11-22T09:42:02.855Z,33.99
2023-11-22T09:43:05.471Z,33.87
2023-11-22T09:44:08.417Z,33.98
2023-11-22T09:45:11.044Z,33.92
2023-11-22T09:46:14.842Z,34.03
2023-11-22T09:47:20.406Z,33.68
2023-11-22T09:48:30.136Z,33.85
2023-11-22T09:49:36.175Z,33.60
2023-11-22T09:50:42.409Z,33.79
2023-11-22T09:51:46.399Z,33.81
2023-11-22T09:53:01.521Z,33.65
2023-11-22T09:54:10.865Z,33.91
2023-11-22T09:55:14.040Z,33.91
2023-11-22T09:56:16.978Z,33.86
2023-11-22T09:57:25.711Z,33.63
2023-11-22T09:58:32.486Z,33.46
2023-11-22T09:59:34.601Z,33.57
2023-11-22T10:00:36.973Z,33.46
2023-11-22T10:01:40.147Z,33.66
2023-11-22T10:02:43.332Z,33.64
2023-11-22T10:03:46.700Z,33.70
2023-11-22T10:04:49.204Z,33.43
2023-11-22T10:05:53.799Z,33.20
2023-11-22T10:06:56.857Z,33.35
2023-11-22T10:07:59.008Z,33.34
2023-11-22T10:09:11.361Z,33.18
2023-11-22T10:10:16.820Z,33.16
2023-11-22T10:11:19.695Z,33.06
2023-11-22T10:12:22.953Z,33.75
2023-11-22T10:13:25.455Z,33.31
2023-11-22T10:14:27.454Z,32.97
2023-11-22T10:15:30.572Z,32.68
2023-11-22T10:16:32.592Z,33.18
2023-11-22T10:17:34.654Z,32.99
2023-11-22T10:18:41.479Z,32.92
2023-11-22T10:19:44.003Z,33.21
2023-11-22T10:20:51.078Z,32.99
2023-11-22T10:22:10.928Z,33.06
2023-11-22T10:23:20.926Z,33.00
2023-11-22T10:24:23.255Z,32.94
2023-11-22T10:25:25.426Z,32.91
2023-11-22T10:26:29.547Z,33.02
2023-11-22T10:27:32.168Z,32.97
2023-11-22T10:28:34.569Z,32.61
2023-11-22T10:29:37.805Z,32.81
2023-11-22T10:30:42.244Z,32.93
2023-11-22T10:31:45.003Z,32.84
2023-11-22T10:32:47.755Z,32.73
2023-11-22T10:33:50.758Z,33.00
2023-11-22T10:34:53.478Z,32.83
2023-11-22T10:35:55.732Z,32.85
2023-11-22T10:36:57.995Z,32.90
2023-11-22T10:38:07.949Z,32.77
2023-11-22T10:39:16.848Z,32.95
2023-11-22T10:40:19.287Z,32.91
2023-11-22T10:41:25.839Z,33.03
2023-11-22T10:42:29.394Z,32.89
2023-11-22T10:43:33.774Z,32.88
2023-11-22T10:44:37.139Z,32.80
2023-11-22T10:45:41.962Z,32.76
2023-11-22T10:46:48.202Z,32.99
2023-11-22T10:47:54.749Z,32.72
2023-11-22T10:48:57.746Z,32.80
2023-11-22T10:50:02.754Z,32.73
2023-11-22T10:51:07.323Z,33.04
2023-11-22T10:52:14.135Z,32.88
2023-11-22T10:53:26.113Z,33.04
2023-11-22T10:54:29.107Z,32.92
2023-11-22T10:55:34.125Z,32.80
2023-11-22T10:56:42.936Z,32.83
2023-11-22T10:57:55.635Z,33.11
2023-11-22T10:59:03.345Z,33.21
2023-11-22T11:00:08.771Z,32.95
2023-11-22T11:01:11.373Z,32.98
2023-11-22T11:02:22.318Z,33.03
2023-11-22T11:03:32.223Z,33.00
2023-11-22T11:04:48.821Z,32.71
2023-11-22T11:05:59.697Z,32.97
2023-11-22T11:07:03.757Z,32.77
2023-11-22T11:08:19.034Z,32.80
2023-11-22T11:09:23.559Z,32.80
2023-11-22T11:10:25.863Z,32.91
2023-11-22T11:11:31.831Z,32.92
2023-11-22T11:12:34.526Z,33.00
2023-11-22T11:13:36.843Z,32.77
2023-11-22T11:14:40.624Z,32.71
2023-11-22T11:15:44.998Z,32.82
2023-11-22T11:16:51.094Z,33.04
2023-11-22T11:17:53.961Z,32.73
2023-11-22T11:18:56.987Z,32.78
2023-11-22T11:20:00.055Z,32.99
2023-11-22T11:21:13.277Z,32.85
2023-11-22T11:22:15.317Z,32.78
2023-11-22T11:23:23.807Z,32.69
2023-11-22T11:24:25.915Z,32.70
2023-11-22T11:25:29.204Z,32.82
2023-11-22T11:26:37.247Z,32.99
2023-11-22T11:27:40.019Z,32.69
2023-11-22T11:28:50.465Z,32.93
2023-11-22T11:29:52.860Z,32.78
2023-11-22T11:30:56.020Z,32.87
2023-11-22T11:31:58.768Z,32.79
2023-11-22T11:33:02.677Z,32.63
2023-11-22T11:34:07.777Z,32.82
2023-11-22T11:35:09.816Z,32.67
2023-11-22T11:36:15.163Z,32.69
2023-11-22T11:37:21.089Z,32.98
2023-11-22T11:38:35.592Z,32.51
2023-11-22T11:39:38.762Z,32.62
2023-11-22T11:40:43.884Z,32.74
2023-11-22T11:41:46.109Z,32.75
2023-11-22T11:42:49.978Z,33.02
2023-11-22T11:43:51.974Z,32.66
2023-11-22T11:45:08.618Z,32.70
2023-11-22T11:46:12.953Z,32.55
2023-11-22T11:47:15.573Z,32.75
2023-11-22T11:48:19.822Z,32.88
2023-11-22T11:49:24.328Z,32.74
2023-11-22T11:50:26.801Z,32.56
2023-11-22T11:51:30.041Z,32.67
2023-11-22T11:52:34.784Z,32.81
2023-11-22T11:53:36.890Z,32.62
2023-11-22T11:54:40.910Z,32.72
2023-11-22T11:55:46.370Z,32.74
2023-11-22T11:56:52.697Z,32.79
2023-11-22T11:57:58.005Z,32.52
2023-11-22T11:59:03.181Z,32.78
2023-11-22T12:00:06.870Z,32.64
2023-11-22T12:01:09.259Z,32.76
2023-11-22T12:02:11.410Z,32.63
2023-11-22T12:03:13.569Z,32.62
2023-11-22T12:04:18.013Z,32.72
2023-11-22T12:05:21.911Z,32.86
2023-11-22T12:06:24.146Z,32.56
2023-11-22T12:07:26.283Z,32.62
2023-11-22T12:08:31.739Z,32.83
2023-11-22T12:09:37.100Z,32.62
2023-11-22T12:10:38.980Z,32.54
2023-11-22T12:11:41.993Z,32.79
2023-11-22T12:12:47.074Z,32.67
2023-11-22T12:13:51.646Z,32.81
2023-11-22T12:14:54.137Z,32.77
2023-11-22T12:15:56.302Z,32.68
2023-11-22T12:17:00.401Z,32.86
2023-11-22T12:18:03.734Z,32.64
2023-11-22T12:19:07.097Z,32.63
2023-11-22T12:20:20.216Z,32.86
2023-11-22T12:21:23.560Z,32.72
2023-11-22T12:22:26.238Z,32.53
2023-11-22T12:23:30.549Z,32.70
2023-11-22T12:24:32.960Z,32.68
2023-11-22T12:25:36.724Z,32.55
2023-11-22T12:26:43.077Z,32.64
2023-11-22T12:27:50.452Z,32.36
2023-11-22T12:29:01.289Z,32.76
2023-11-22T12:30:09.600Z,32.60
2023-11-22T12:31:14.238Z,32.60
2023-11-22T12:32:18.818Z,32.62
2023-11-22T12:33:21.930Z,32.60
2023-11-22T12:34:27.800Z,32.67
2023-11-22T12:35:30.953Z,32.78
2023-11-22T12:36:34.360Z,32.81
2023-11-22T12:37:38.024Z,32.76
2023-11-22T12:38:43.241Z,32.55
2023-11-22T12:39:47.554Z,33.00
2023-11-22T12:40:50.073Z,32.51
2023-11-22T12:42:02.201Z,32.56
2023-11-22T12:43:18.528Z,32.11
2023-11-22T12:44:21.058Z,32.68
2023-11-22T12:45:30.176Z,32.82
2023-11-22T12:46:50.984Z,32.54
2023-11-22T12:47:54.403Z,32.77
2023-11-22T12:49:07.926Z,32.91
2023-11-22T12:50:32.734Z,32.66
2023-11-22T12:51:35.091Z,32.72
2023-11-22T12:52:36.998Z,32.52
2023-11-22T12:53:39.167Z,32.57
2023-11-22T12:54:41.329Z,32.85
2023-11-22T12:55:49.268Z,32.84
2023-11-22T12:56:52.313Z,32.51
2023-11-22T12:58:03.354Z,32.60
2023-11-22T12:59:05.333Z,32.93
2023-11-22T13:00:08.342Z,32.79
2023-11-22T13:01:11.144Z,32.56
2023-11-22T13:02:13.496Z,32.49
2023-11-22T13:03:16.525Z,33.13
2023-11-22T13:04:19.134Z,32.66
2023-11-22T13:05:22.952Z,32.63
2023-11-22T13:06:27.669Z,32.58
2023-11-22T13:07:30.494Z,32.74
2023-11-22T13:08:32.678Z,32.63
2023-11-22T13:09:36.998Z,32.81
2023-11-22T13:10:38.929Z,32.68
2023-11-22T13:11:41.746Z,32.71
2023-11-22T13:12:47.191Z,32.65
2023-11-22T13:13:49.124Z,32.75
2023-11-22T13:14:52.206Z,32.62
2023-11-22T13:15:54.979Z,32.88
2023-11-22T13:16:57.412Z,32.67
2023-11-22T13:18:00.015Z,32.81
2023-11-22T13:19:02.043Z,32.70
2023-11-22T13:20:06.593Z,32.73
2023-11-22T13:21:08.466Z,32.93
2023-11-22T13:22:10.468Z,32.81
2023-11-22T13:23:13.401Z,32.64
2023-11-22T13:24:18.159Z,32.74
2023-11-22T13:25:21.237Z,32.76
2023-11-22T13:26:23.535Z,32.72
2023-11-22T13:27:25.583Z,32.55
2023-11-22T13:28:27.782Z,32.77
2023-11-22T13:29:29.615Z,32.58
2023-11-22T13:30:31.632Z,32.79
2023-11-22T13:31:33.498Z,32.81
2023-11-22T13:32:36.269Z,32.65
2023-11-22T13:33:40.342Z,32.57
2023-11-22T13:34:42.673Z,32.62
2023-11-22T13:35:45.849Z,32.75
2023-11-22T13:36:47.905Z,32.66
2023-11-22T13:37:50.302Z,32.78